sensor_id;sensor_type;location;lat;lon;timestamp;P1;durP1;ratioP1;P2;durP2;ratioP2
23080;SDS011;72373;50.562;8.498;2024-02-04T00:00:14;4.07;;;2.60;;
23080;SDS011;72373;50.562;8.498;2024-02-04T00:02:40;4.18;;;2.95;;
23080;SDS011;72373;50.562;8.498;2024-02-04T00:05:06;3.33;;;2.80;;
23080;SDS011;72373;50.562;8.498;2024-02-04T00:07:32;3.42;;;2.70;;
23080;SDS011;72373;50.562;8.498;2024-02-04T00:09:57;3.78;;;2.60;;
23080;SDS011;72373;50.562;8.498;2024-02-04T00:12:23;4.90;;;2.70;;
23080;SDS011;72373;50.562;8.498;2024-02-04T00:14:49;3.22;;;2.85;;
23080;SDS011;72373;50.562;8.498;2024-02-04T00:17:15;3.88;;;2.30;;
23080;SDS011;72373;50.562;8.498;2024-02-04T00:19:41;2.45;;;2.20;;
23080;SDS011;72373;50.562;8.498;2024-02-04T00:22:07;2.38;;;1.83;;
23080;SDS011;72373;50.562;8.498;2024-02-04T00:24:33;5.05;;;2.10;;
23080;SDS011;72373;50.562;8.498;2024-02-04T00:26:58;3.58;;;2.10;;
23080;SDS011;72373;50.562;8.498;2024-02-04T00:29:24;2.20;;;2.00;;
23080;SDS011;72373;50.562;8.498;2024-02-04T00:31:50;2.75;;;2.00;;
23080;SDS011;72373;50.562;8.498;2024-02-04T00:34:15;6.35;;;2.50;;
23080;SDS011;72373;50.562;8.498;2024-02-04T00:36:41;2.75;;;2.17;;
23080;SDS011;72373;50.562;8.498;2024-02-04T00:39:07;3.17;;;2.25;;
23080;SDS011;72373;50.562;8.498;2024-02-04T00:41:33;2.95;;;2.17;;
23080;SDS011;72373;50.562;8.498;2024-02-04T00:43:59;3.03;;;2.17;;
23080;SDS011;72373;50.562;8.498;2024-02-04T00:46:25;2.83;;;2.10;;
23080;SDS011;72373;50.562;8.498;2024-02-04T00:48:50;4.20;;;2.30;;
23080;SDS011;72373;50.562;8.498;2024-02-04T00:51:16;3.78;;;1.80;;
23080;SDS011;72373;50.562;8.498;2024-02-04T00:53:42;2.40;;;2.13;;
23080;SDS011;72373;50.562;8.498;2024-02-04T00:56:08;2.22;;;1.65;;
23080;SDS011;72373;50.562;8.498;2024-02-04T00:58:34;3.28;;;1.98;;
23080;SDS011;72373;50.562;8.498;2024-02-04T01:01:00;2.47;;;1.80;;
23080;SDS011;72373;50.562;8.498;2024-02-04T01:03:26;2.05;;;1.70;;
23080;SDS011;72373;50.562;8.498;2024-02-04T01:05:51;2.70;;;1.50;;
23080;SDS011;72373;50.562;8.498;2024-02-04T01:08:17;2.80;;;1.63;;
23080;SDS011;72373;50.562;8.498;2024-02-04T01:10:43;2.08;;;1.67;;
23080;SDS011;72373;50.562;8.498;2024-02-04T01:13:08;2.35;;;1.83;;
23080;SDS011;72373;50.562;8.498;2024-02-04T01:15:34;2.80;;;1.90;;
23080;SDS011;72373;50.562;8.498;2024-02-04T01:17:59;2.22;;;1.90;;
23080;SDS011;72373;50.562;8.498;2024-02-04T01:20:25;2.03;;;1.55;;
23080;SDS011;72373;50.562;8.498;2024-02-04T01:22:51;1.85;;;1.33;;
23080;SDS011;72373;50.562;8.498;2024-02-04T01:25:16;1.95;;;1.60;;
23080;SDS011;72373;50.562;8.498;2024-02-04T01:27:42;2.45;;;1.67;;
23080;SDS011;72373;50.562;8.498;2024-02-04T01:30:07;2.90;;;2.33;;
23080;SDS011;72373;50.562;8.498;2024-02-04T01:32:33;1.60;;;1.50;;
23080;SDS011;72373;50.562;8.498;2024-02-04T01:34:59;1.85;;;1.30;;
23080;SDS011;72373;50.562;8.498;2024-02-04T01:37:24;1.60;;;1.50;;
23080;SDS011;72373;50.562;8.498;2024-02-04T01:39:50;1.88;;;1.40;;
23080;SDS011;72373;50.562;8.498;2024-02-04T01:42:15;1.60;;;1.48;;
23080;SDS011;72373;50.562;8.498;2024-02-04T01:44:41;1.30;;;1.10;;
23080;SDS011;72373;50.562;8.498;2024-02-04T01:47:07;2.13;;;1.33;;
23080;SDS011;72373;50.562;8.498;2024-02-04T01:49:34;1.45;;;1.20;;
23080;SDS011;72373;50.562;8.498;2024-02-04T01:51:59;1.30;;;1.20;;
23080;SDS011;72373;50.562;8.498;2024-02-04T01:54:26;1.17;;;1.00;;
23080;SDS011;72373;50.562;8.498;2024-02-04T01:56:52;1.42;;;1.10;;
23080;SDS011;72373;50.562;8.498;2024-02-04T01:59:19;1.85;;;1.38;;
23080;SDS011;72373;50.562;8.498;2024-02-04T02:01:47;1.38;;;1.25;;
23080;SDS011;72373;50.562;8.498;2024-02-04T02:04:13;1.20;;;1.10;;
23080;SDS011;72373;50.562;8.498;2024-02-04T02:06:39;1.00;;;0.90;;
23080;SDS011;72373;50.562;8.498;2024-02-04T02:09:08;1.10;;;1.00;;
23080;SDS011;72373;50.562;8.498;2024-02-04T02:11:37;1.13;;;1.02;;
23080;SDS011;72373;50.562;8.498;2024-02-04T02:14:07;1.02;;;0.90;;
23080;SDS011;72373;50.562;8.498;2024-02-04T02:16:39;0.90;;;0.70;;
23080;SDS011;72373;50.562;8.498;2024-02-04T02:22:05;0.60;;;0.60;;
23080;SDS011;72373;50.562;8.498;2024-02-04T02:24:38;1.17;;;1.00;;
23080;SDS011;72373;50.562;8.498;2024-02-04T02:27:04;2.40;;;1.50;;
23080;SDS011;72373;50.562;8.498;2024-02-04T02:29:31;0.73;;;0.73;;
23080;SDS011;72373;50.562;8.498;2024-02-04T02:31:57;1.00;;;0.90;;
23080;SDS011;72373;50.562;8.498;2024-02-04T02:34:24;0.60;;;0.60;;
23080;SDS011;72373;50.562;8.498;2024-02-04T02:36:50;1.58;;;0.88;;
23080;SDS011;72373;50.562;8.498;2024-02-04T02:39:23;0.60;;;0.60;;
23080;SDS011;72373;50.562;8.498;2024-02-04T02:41:54;1.25;;;0.80;;
23080;SDS011;72373;50.562;8.498;2024-02-04T02:44:23;0.85;;;0.80;;
23080;SDS011;72373;50.562;8.498;2024-02-04T02:46:51;2.30;;;0.73;;
23080;SDS011;72373;50.562;8.498;2024-02-04T02:49:19;1.33;;;0.77;;
23080;SDS011;72373;50.562;8.498;2024-02-04T02:51:44;0.63;;;0.63;;
23080;SDS011;72373;50.562;8.498;2024-02-04T02:54:10;0.88;;;0.88;;
23080;SDS011;72373;50.562;8.498;2024-02-04T02:56:36;0.90;;;0.75;;
23080;SDS011;72373;50.562;8.498;2024-02-04T02:59:02;1.45;;;0.80;;
23080;SDS011;72373;50.562;8.498;2024-02-04T03:01:28;1.13;;;1.02;;
23080;SDS011;72373;50.562;8.498;2024-02-04T03:03:54;0.80;;;0.80;;
23080;SDS011;72373;50.562;8.498;2024-02-04T03:06:20;0.70;;;0.70;;
23080;SDS011;72373;50.562;8.498;2024-02-04T03:08:45;0.93;;;0.77;;
23080;SDS011;72373;50.562;8.498;2024-02-04T03:11:11;0.80;;;0.73;;
23080;SDS011;72373;50.562;8.498;2024-02-04T03:13:39;1.02;;;0.93;;
23080;SDS011;72373;50.562;8.498;2024-02-04T03:16:09;0.98;;;0.88;;
23080;SDS011;72373;50.562;8.498;2024-02-04T03:18:36;1.00;;;0.90;;
23080;SDS011;72373;50.562;8.498;2024-02-04T03:21:04;0.73;;;0.73;;
23080;SDS011;72373;50.562;8.498;2024-02-04T03:23:36;1.20;;;0.88;;
23080;SDS011;72373;50.562;8.498;2024-02-04T03:26:01;2.33;;;0.70;;
23080;SDS011;72373;50.562;8.498;2024-02-04T03:28:27;2.00;;;0.75;;
23080;SDS011;72373;50.562;8.498;2024-02-04T03:30:53;0.77;;;0.77;;
23080;SDS011;72373;50.562;8.498;2024-02-04T03:33:18;0.73;;;0.73;;
23080;SDS011;72373;50.562;8.498;2024-02-04T03:35:44;0.68;;;0.60;;
23080;SDS011;72373;50.562;8.498;2024-02-04T03:38:09;1.15;;;0.60;;
23080;SDS011;72373;50.562;8.498;2024-02-04T03:40:35;1.73;;;0.70;;
23080;SDS011;72373;50.562;8.498;2024-02-04T03:43:01;0.68;;;0.68;;
23080;SDS011;72373;50.562;8.498;2024-02-04T03:45:26;0.75;;;0.60;;
23080;SDS011;72373;50.562;8.498;2024-02-04T03:47:52;1.80;;;0.80;;
23080;SDS011;72373;50.562;8.498;2024-02-04T03:50:17;0.60;;;0.60;;
23080;SDS011;72373;50.562;8.498;2024-02-04T03:52:43;0.60;;;0.60;;
23080;SDS011;72373;50.562;8.498;2024-02-04T03:55:09;0.50;;;0.50;;
23080;SDS011;72373;50.562;8.498;2024-02-04T03:57:34;0.55;;;0.55;;
23080;SDS011;72373;50.562;8.498;2024-02-04T04:00:00;1.08;;;0.70;;
23080;SDS011;72373;50.562;8.498;2024-02-04T04:02:25;0.98;;;0.82;;
23080;SDS011;72373;50.562;8.498;2024-02-04T04:04:51;0.60;;;0.60;;
23080;SDS011;72373;50.562;8.498;2024-02-04T04:07:16;0.80;;;0.70;;
23080;SDS011;72373;50.562;8.498;2024-02-04T04:09:42;1.42;;;0.50;;
23080;SDS011;72373;50.562;8.498;2024-02-04T04:12:07;0.57;;;0.57;;
23080;SDS011;72373;50.562;8.498;2024-02-04T04:14:33;0.50;;;0.50;;
23080;SDS011;72373;50.562;8.498;2024-02-04T04:16:58;0.80;;;0.50;;
23080;SDS011;72373;50.562;8.498;2024-02-04T04:19:24;1.05;;;0.77;;
23080;SDS011;72373;50.562;8.498;2024-02-04T04:21:49;0.70;;;0.50;;
23080;SDS011;72373;50.562;8.498;2024-02-04T04:24:15;0.60;;;0.40;;
23080;SDS011;72373;50.562;8.498;2024-02-04T04:26:44;0.40;;;0.40;;
23080;SDS011;72373;50.562;8.498;2024-02-04T04:29:10;0.50;;;0.50;;
23080;SDS011;72373;50.562;8.498;2024-02-04T04:31:35;0.50;;;0.50;;
23080;SDS011;72373;50.562;8.498;2024-02-04T04:34:01;0.60;;;0.60;;
23080;SDS011;72373;50.562;8.498;2024-02-04T04:36:26;0.77;;;0.50;;
23080;SDS011;72373;50.562;8.498;2024-02-04T04:38:52;0.50;;;0.50;;
23080;SDS011;72373;50.562;8.498;2024-02-04T04:41:17;0.50;;;0.50;;
23080;SDS011;72373;50.562;8.498;2024-02-04T04:43:43;0.63;;;0.60;;
23080;SDS011;72373;50.562;8.498;2024-02-04T04:46:08;0.43;;;0.40;;
23080;SDS011;72373;50.562;8.498;2024-02-04T04:48:34;1.25;;;0.47;;
23080;SDS011;72373;50.562;8.498;2024-02-04T04:50:59;0.40;;;0.40;;
23080;SDS011;72373;50.562;8.498;2024-02-04T04:53:25;0.32;;;0.32;;
23080;SDS011;72373;50.562;8.498;2024-02-04T04:55:50;0.40;;;0.40;;
23080;SDS011;72373;50.562;8.498;2024-02-04T04:58:16;0.40;;;0.40;;
23080;SDS011;72373;50.562;8.498;2024-02-04T05:00:41;0.60;;;0.60;;
23080;SDS011;72373;50.562;8.498;2024-02-04T05:03:07;0.47;;;0.40;;
23080;SDS011;72373;50.562;8.498;2024-02-04T05:05:32;0.57;;;0.50;;
23080;SDS011;72373;50.562;8.498;2024-02-04T05:07:58;0.63;;;0.60;;
23080;SDS011;72373;50.562;8.498;2024-02-04T05:10:23;0.75;;;0.50;;
23080;SDS011;72373;50.562;8.498;2024-02-04T05:12:49;0.40;;;0.40;;
23080;SDS011;72373;50.562;8.498;2024-02-04T05:15:15;0.47;;;0.47;;
23080;SDS011;72373;50.562;8.498;2024-02-04T05:17:40;0.50;;;0.50;;
23080;SDS011;72373;50.562;8.498;2024-02-04T05:20:06;1.25;;;0.50;;
23080;SDS011;72373;50.562;8.498;2024-02-04T05:22:32;0.80;;;0.60;;
23080;SDS011;72373;50.562;8.498;2024-02-04T05:24:58;0.50;;;0.50;;
23080;SDS011;72373;50.562;8.498;2024-02-04T05:27:23;2.38;;;0.60;;
23080;SDS011;72373;50.562;8.498;2024-02-04T05:29:49;0.50;;;0.50;;
23080;SDS011;72373;50.562;8.498;2024-02-04T05:32:14;2.05;;;0.60;;
23080;SDS011;72373;50.562;8.498;2024-02-04T05:34:40;0.50;;;0.50;;
23080;SDS011;72373;50.562;8.498;2024-02-04T05:37:05;0.80;;;0.50;;
23080;SDS011;72373;50.562;8.498;2024-02-04T05:39:31;1.50;;;0.70;;
23080;SDS011;72373;50.562;8.498;2024-02-04T05:41:57;0.57;;;0.57;;
23080;SDS011;72373;50.562;8.498;2024-02-04T05:44:22;0.60;;;0.60;;
23080;SDS011;72373;50.562;8.498;2024-02-04T05:46:48;2.35;;;0.60;;
23080;SDS011;72373;50.562;8.498;2024-02-04T05:49:13;0.60;;;0.60;;
23080;SDS011;72373;50.562;8.498;2024-02-04T05:51:39;0.88;;;0.50;;
23080;SDS011;72373;50.562;8.498;2024-02-04T05:54:05;0.68;;;0.65;;
23080;SDS011;72373;50.562;8.498;2024-02-04T05:56:32;1.60;;;0.90;;
23080;SDS011;72373;50.562;8.498;2024-02-04T05:58:57;1.33;;;0.73;;
23080;SDS011;72373;50.562;8.498;2024-02-04T06:01:23;0.60;;;0.60;;
23080;SDS011;72373;50.562;8.498;2024-02-04T06:03:48;1.83;;;0.75;;
23080;SDS011;72373;50.562;8.498;2024-02-04T06:06:14;0.70;;;0.60;;
23080;SDS011;72373;50.562;8.498;2024-02-04T06:08:41;0.95;;;0.73;;
23080;SDS011;72373;50.562;8.498;2024-02-04T06:11:13;0.77;;;0.70;;
23080;SDS011;72373;50.562;8.498;2024-02-04T06:13:39;0.63;;;0.60;;
23080;SDS011;72373;50.562;8.498;2024-02-04T06:16:06;0.98;;;0.60;;
23080;SDS011;72373;50.562;8.498;2024-02-04T06:18:32;0.60;;;0.57;;
23080;SDS011;72373;50.562;8.498;2024-02-04T06:20:57;1.67;;;0.70;;
23080;SDS011;72373;50.562;8.498;2024-02-04T06:23:23;0.98;;;0.73;;
23080;SDS011;72373;50.562;8.498;2024-02-04T06:25:48;0.80;;;0.80;;
23080;SDS011;72373;50.562;8.498;2024-02-04T06:28:14;0.65;;;0.60;;
23080;SDS011;72373;50.562;8.498;2024-02-04T06:30:39;0.63;;;0.57;;
23080;SDS011;72373;50.562;8.498;2024-02-04T06:33:05;0.95;;;0.57;;
23080;SDS011;72373;50.562;8.498;2024-02-04T06:35:31;1.05;;;0.70;;
23080;SDS011;72373;50.562;8.498;2024-02-04T06:37:57;0.73;;;0.60;;
23080;SDS011;72373;50.562;8.498;2024-02-04T06:40:23;0.50;;;0.50;;
23080;SDS011;72373;50.562;8.498;2024-02-04T06:42:48;2.03;;;0.50;;
23080;SDS011;72373;50.562;8.498;2024-02-04T06:45:14;0.82;;;0.70;;
23080;SDS011;72373;50.562;8.498;2024-02-04T06:47:42;1.02;;;0.55;;
23080;SDS011;72373;50.562;8.498;2024-02-04T06:50:09;1.05;;;0.80;;
23080;SDS011;72373;50.562;8.498;2024-02-04T06:52:42;1.10;;;0.73;;
23080;SDS011;72373;50.562;8.498;2024-02-04T06:55:08;1.75;;;0.80;;
23080;SDS011;72373;50.562;8.498;2024-02-04T06:57:34;1.20;;;0.88;;
23080;SDS011;72373;50.562;8.498;2024-02-04T07:00:00;0.90;;;0.73;;
23080;SDS011;72373;50.562;8.498;2024-02-04T07:02:26;1.27;;;0.70;;
23080;SDS011;72373;50.562;8.498;2024-02-04T07:04:52;1.10;;;0.85;;
23080;SDS011;72373;50.562;8.498;2024-02-04T07:07:17;0.85;;;0.70;;
23080;SDS011;72373;50.562;8.498;2024-02-04T07:09:43;0.90;;;0.80;;
23080;SDS011;72373;50.562;8.498;2024-02-04T07:12:08;1.13;;;0.80;;
23080;SDS011;72373;50.562;8.498;2024-02-04T07:14:34;0.80;;;0.80;;
23080;SDS011;72373;50.562;8.498;2024-02-04T07:16:59;0.80;;;0.55;;
23080;SDS011;72373;50.562;8.498;2024-02-04T07:19:25;0.80;;;0.80;;
23080;SDS011;72373;50.562;8.498;2024-02-04T07:21:51;1.90;;;0.70;;
23080;SDS011;72373;50.562;8.498;2024-02-04T07:24:16;0.65;;;0.60;;
23080;SDS011;72373;50.562;8.498;2024-02-04T07:26:44;1.30;;;0.85;;
23080;SDS011;72373;50.562;8.498;2024-02-04T07:29:12;1.65;;;0.80;;
23080;SDS011;72373;50.562;8.498;2024-02-04T07:31:38;1.10;;;1.00;;
23080;SDS011;72373;50.562;8.498;2024-02-04T07:34:04;0.88;;;0.80;;
23080;SDS011;72373;50.562;8.498;2024-02-04T07:36:30;0.93;;;0.82;;
23080;SDS011;72373;50.562;8.498;2024-02-04T07:38:56;4.20;;;1.00;;
23080;SDS011;72373;50.562;8.498;2024-02-04T07:41:21;0.82;;;0.80;;
23080;SDS011;72373;50.562;8.498;2024-02-04T07:43:47;1.33;;;0.77;;
23080;SDS011;72373;50.562;8.498;2024-02-04T07:46:13;1.13;;;0.98;;
23080;SDS011;72373;50.562;8.498;2024-02-04T07:48:39;1.00;;;0.77;;
23080;SDS011;72373;50.562;8.498;2024-02-04T07:51:04;1.02;;;0.90;;
23080;SDS011;72373;50.562;8.498;2024-02-04T07:53:30;0.98;;;0.80;;
23080;SDS011;72373;50.562;8.498;2024-02-04T07:55:56;1.35;;;0.90;;
23080;SDS011;72373;50.562;8.498;2024-02-04T07:58:22;1.00;;;0.80;;
23080;SDS011;72373;50.562;8.498;2024-02-04T08:00:47;0.85;;;0.85;;
23080;SDS011;72373;50.562;8.498;2024-02-04T08:03:13;1.05;;;0.80;;
23080;SDS011;72373;50.562;8.498;2024-02-04T08:05:39;1.70;;;0.82;;
23080;SDS011;72373;50.562;8.498;2024-02-04T08:08:04;1.25;;;0.70;;
23080;SDS011;72373;50.562;8.498;2024-02-04T08:10:30;0.70;;;0.70;;
23080;SDS011;72373;50.562;8.498;2024-02-04T08:12:56;1.70;;;0.75;;
23080;SDS011;72373;50.562;8.498;2024-02-04T08:15:22;0.50;;;0.50;;
23080;SDS011;72373;50.562;8.498;2024-02-04T08:17:47;0.88;;;0.60;;
23080;SDS011;72373;50.562;8.498;2024-02-04T08:20:13;1.00;;;0.73;;
23080;SDS011;72373;50.562;8.498;2024-02-04T08:22:38;0.80;;;0.80;;
23080;SDS011;72373;50.562;8.498;2024-02-04T08:25:04;1.27;;;0.98;;
23080;SDS011;72373;50.562;8.498;2024-02-04T08:27:30;0.55;;;0.55;;
23080;SDS011;72373;50.562;8.498;2024-02-04T08:29:56;0.60;;;0.60;;
23080;SDS011;72373;50.562;8.498;2024-02-04T08:32:22;1.15;;;0.80;;
23080;SDS011;72373;50.562;8.498;2024-02-04T08:34:47;0.55;;;0.50;;
23080;SDS011;72373;50.562;8.498;2024-02-04T08:37:13;0.55;;;0.55;;
23080;SDS011;72373;50.562;8.498;2024-02-04T08:39:38;0.55;;;0.55;;
23080;SDS011;72373;50.562;8.498;2024-02-04T08:42:04;1.48;;;1.00;;
23080;SDS011;72373;50.562;8.498;2024-02-04T08:44:30;1.38;;;0.90;;
23080;SDS011;72373;50.562;8.498;2024-02-04T08:46:56;0.93;;;0.82;;
23080;SDS011;72373;50.562;8.498;2024-02-04T08:49:21;2.65;;;1.08;;
23080;SDS011;72373;50.562;8.498;2024-02-04T08:51:47;1.67;;;1.00;;
23080;SDS011;72373;50.562;8.498;2024-02-04T08:54:13;1.05;;;0.90;;
23080;SDS011;72373;50.562;8.498;2024-02-04T08:56:39;1.15;;;0.90;;
23080;SDS011;72373;50.562;8.498;2024-02-04T08:59:05;1.48;;;1.20;;
23080;SDS011;72373;50.562;8.498;2024-02-04T09:01:31;1.50;;;1.40;;
23080;SDS011;72373;50.562;8.498;2024-02-04T09:03:57;1.70;;;1.52;;
23080;SDS011;72373;50.562;8.498;2024-02-04T09:06:22;1.00;;;0.90;;
23080;SDS011;72373;50.562;8.498;2024-02-04T09:08:48;1.50;;;1.00;;
23080;SDS011;72373;50.562;8.498;2024-02-04T09:11:13;0.95;;;0.70;;
23080;SDS011;72373;50.562;8.498;2024-02-04T09:13:44;0.63;;;0.60;;
23080;SDS011;72373;50.562;8.498;2024-02-04T09:16:10;1.35;;;0.93;;
23080;SDS011;72373;50.562;8.498;2024-02-04T09:18:36;1.20;;;0.95;;
23080;SDS011;72373;50.562;8.498;2024-02-04T09:21:02;0.70;;;0.70;;
23080;SDS011;72373;50.562;8.498;2024-02-04T09:23:27;1.15;;;0.80;;
23080;SDS011;72373;50.562;8.498;2024-02-04T09:25:53;0.65;;;0.65;;
23080;SDS011;72373;50.562;8.498;2024-02-04T09:28:18;0.70;;;0.65;;
23080;SDS011;72373;50.562;8.498;2024-02-04T09:30:44;1.20;;;0.70;;
23080;SDS011;72373;50.562;8.498;2024-02-04T09:33:09;1.08;;;0.60;;
23080;SDS011;72373;50.562;8.498;2024-02-04T09:35:35;1.08;;;0.63;;
23080;SDS011;72373;50.562;8.498;2024-02-04T09:38:00;0.70;;;0.70;;
23080;SDS011;72373;50.562;8.498;2024-02-04T09:40:26;0.50;;;0.40;;
23080;SDS011;72373;50.562;8.498;2024-02-04T09:42:52;0.50;;;0.50;;
23080;SDS011;72373;50.562;8.498;2024-02-04T09:45:19;0.90;;;0.45;;
23080;SDS011;72373;50.562;8.498;2024-02-04T09:47:45;1.40;;;0.70;;
23080;SDS011;72373;50.562;8.498;2024-02-04T09:50:11;0.60;;;0.60;;
23080;SDS011;72373;50.562;8.498;2024-02-04T09:52:39;0.95;;;0.70;;
23080;SDS011;72373;50.562;8.498;2024-02-04T09:55:06;0.63;;;0.50;;
23080;SDS011;72373;50.562;8.498;2024-02-04T09:57:35;0.70;;;0.70;;
23080;SDS011;72373;50.562;8.498;2024-02-04T10:00:03;0.60;;;0.60;;
23080;SDS011;72373;50.562;8.498;2024-02-04T10:02:30;0.63;;;0.60;;
23080;SDS011;72373;50.562;8.498;2024-02-04T10:04:57;2.38;;;0.80;;
23080;SDS011;72373;50.562;8.498;2024-02-04T10:07:23;0.90;;;0.70;;
23080;SDS011;72373;50.562;8.498;2024-02-04T10:09:49;1.73;;;0.70;;
23080;SDS011;72373;50.562;8.498;2024-02-04T10:12:15;0.60;;;0.60;;
23080;SDS011;72373;50.562;8.498;2024-02-04T10:14:41;0.88;;;0.80;;
23080;SDS011;72373;50.562;8.498;2024-02-04T10:17:07;2.20;;;1.40;;
23080;SDS011;72373;50.562;8.498;2024-02-04T10:19:33;1.27;;;0.90;;
23080;SDS011;72373;50.562;8.498;2024-02-04T10:21:59;1.50;;;1.08;;
23080;SDS011;72373;50.562;8.498;2024-02-04T10:24:28;2.47;;;1.00;;
23080;SDS011;72373;50.562;8.498;2024-02-04T10:26:55;2.00;;;0.90;;
23080;SDS011;72373;50.562;8.498;2024-02-04T10:29:24;1.00;;;0.88;;
23080;SDS011;72373;50.562;8.498;2024-02-04T10:31:56;0.93;;;0.80;;
23080;SDS011;72373;50.562;8.498;2024-02-04T10:34:23;0.70;;;0.70;;
23080;SDS011;72373;50.562;8.498;2024-02-04T10:36:51;0.63;;;0.63;;
23080;SDS011;72373;50.562;8.498;2024-02-04T10:39:16;1.08;;;0.98;;
23080;SDS011;72373;50.562;8.498;2024-02-04T10:41:49;1.73;;;1.20;;
23080;SDS011;72373;50.562;8.498;2024-02-04T10:44:23;1.48;;;0.93;;
23080;SDS011;72373;50.562;8.498;2024-02-04T10:46:49;1.38;;;0.90;;
23080;SDS011;72373;50.562;8.498;2024-02-04T10:49:19;1.65;;;1.20;;
23080;SDS011;72373;50.562;8.498;2024-02-04T10:51:45;2.25;;;1.02;;
23080;SDS011;72373;50.562;8.498;2024-02-04T10:54:11;2.47;;;0.80;;
23080;SDS011;72373;50.562;8.498;2024-02-04T10:56:45;1.15;;;0.70;;
23080;SDS011;72373;50.562;8.498;2024-02-04T10:59:15;0.85;;;0.70;;
23080;SDS011;72373;50.562;8.498;2024-02-04T11:01:43;2.17;;;0.60;;
23080;SDS011;72373;50.562;8.498;2024-02-04T11:04:10;0.88;;;0.70;;
23080;SDS011;72373;50.562;8.498;2024-02-04T11:06:39;1.40;;;0.73;;
23080;SDS011;72373;50.562;8.498;2024-02-04T11:09:06;0.82;;;0.60;;
23080;SDS011;72373;50.562;8.498;2024-02-04T11:11:34;0.80;;;0.80;;
23080;SDS011;72373;50.562;8.498;2024-02-04T11:14:02;0.98;;;0.60;;
23080;SDS011;72373;50.562;8.498;2024-02-04T11:27:41;0.80;;;0.70;;
23080;SDS011;72373;50.562;8.498;2024-02-04T11:30:07;1.40;;;0.77;;
23080;SDS011;72373;50.562;8.498;2024-02-04T11:32:34;0.80;;;0.70;;
23080;SDS011;72373;50.562;8.498;2024-02-04T11:35:00;0.77;;;0.70;;
23080;SDS011;72373;50.562;8.498;2024-02-04T11:37:27;0.95;;;0.85;;
23080;SDS011;72373;50.562;8.498;2024-02-04T11:39:54;1.08;;;0.75;;
23080;SDS011;72373;50.562;8.498;2024-02-04T11:42:25;1.05;;;0.80;;
23080;SDS011;72373;50.562;8.498;2024-02-04T11:45:09;2.22;;;1.58;;
23080;SDS011;72373;50.562;8.498;2024-02-04T11:47:37;2.08;;;1.60;;
23080;SDS011;72373;50.562;8.498;2024-02-04T11:50:03;1.05;;;0.82;;
23080;SDS011;72373;50.562;8.498;2024-02-04T11:52:29;2.22;;;0.90;;
23080;SDS011;72373;50.562;8.498;2024-02-04T11:54:55;0.98;;;0.80;;
23080;SDS011;72373;50.562;8.498;2024-02-04T11:57:21;0.70;;;0.60;;
23080;SDS011;72373;50.562;8.498;2024-02-04T11:59:48;1.75;;;0.88;;
23080;SDS011;72373;50.562;8.498;2024-02-04T12:02:15;1.30;;;0.98;;
23080;SDS011;72373;50.562;8.498;2024-02-04T12:04:42;0.52;;;0.50;;
23080;SDS011;72373;50.562;8.498;2024-02-04T12:07:16;0.90;;;0.80;;
23080;SDS011;72373;50.562;8.498;2024-02-04T12:09:42;0.60;;;0.60;;
23080;SDS011;72373;50.562;8.498;2024-02-04T12:12:08;1.15;;;0.70;;
23080;SDS011;72373;50.562;8.498;2024-02-04T12:14:37;1.25;;;0.80;;
23080;SDS011;72373;50.562;8.498;2024-02-04T12:17:07;0.82;;;0.80;;
23080;SDS011;72373;50.562;8.498;2024-02-04T12:19:36;0.77;;;0.60;;
23080;SDS011;72373;50.562;8.498;2024-02-04T12:22:03;3.20;;;1.00;;
23080;SDS011;72373;50.562;8.498;2024-02-04T12:24:34;0.80;;;0.80;;
23080;SDS011;72373;50.562;8.498;2024-02-04T12:27:04;0.95;;;0.85;;
23080;SDS011;72373;50.562;8.498;2024-02-04T12:29:30;0.75;;;0.70;;
23080;SDS011;72373;50.562;8.498;2024-02-04T12:32:00;0.60;;;0.60;;
23080;SDS011;72373;50.562;8.498;2024-02-04T12:34:28;0.88;;;0.60;;
23080;SDS011;72373;50.562;8.498;2024-02-04T12:36:58;0.80;;;0.80;;
23080;SDS011;72373;50.562;8.498;2024-02-04T12:39:25;0.93;;;0.85;;
23080;SDS011;72373;50.562;8.498;2024-02-04T12:41:51;0.95;;;0.80;;
23080;SDS011;72373;50.562;8.498;2024-02-04T12:44:17;1.38;;;0.98;;
23080;SDS011;72373;50.562;8.498;2024-02-04T12:46:43;1.13;;;0.70;;
23080;SDS011;72373;50.562;8.498;2024-02-04T12:49:09;1.40;;;0.73;;
23080;SDS011;72373;50.562;8.498;2024-02-04T12:51:35;0.88;;;0.73;;
23080;SDS011;72373;50.562;8.498;2024-02-04T13:02:08;0.88;;;0.75;;
23080;SDS011;72373;50.562;8.498;2024-02-04T13:04:38;0.98;;;0.70;;
23080;SDS011;72373;50.562;8.498;2024-02-04T13:07:08;0.65;;;0.65;;
23080;SDS011;72373;50.562;8.498;2024-02-04T13:09:35;0.70;;;0.70;;
23080;SDS011;72373;50.562;8.498;2024-02-04T13:12:04;0.98;;;0.70;;
23080;SDS011;72373;50.562;8.498;2024-02-04T13:14:31;0.73;;;0.73;;
23080;SDS011;72373;50.562;8.498;2024-02-04T13:16:57;1.73;;;0.90;;
23080;SDS011;72373;50.562;8.498;2024-02-04T13:19:22;2.30;;;0.60;;
23080;SDS011;72373;50.562;8.498;2024-02-04T13:21:48;0.70;;;0.70;;
23080;SDS011;72373;50.562;8.498;2024-02-04T13:24:14;2.30;;;0.90;;
23080;SDS011;72373;50.562;8.498;2024-02-04T13:26:39;0.77;;;0.73;;
23080;SDS011;72373;50.562;8.498;2024-02-04T13:29:05;0.98;;;0.80;;
23080;SDS011;72373;50.562;8.498;2024-02-04T13:31:30;0.90;;;0.80;;
23080;SDS011;72373;50.562;8.498;2024-02-04T13:33:56;0.65;;;0.65;;
23080;SDS011;72373;50.562;8.498;2024-02-04T13:36:22;1.90;;;0.90;;
23080;SDS011;72373;50.562;8.498;2024-02-04T13:38:48;2.47;;;1.23;;
23080;SDS011;72373;50.562;8.498;2024-02-04T13:41:14;1.88;;;1.30;;
23080;SDS011;72373;50.562;8.498;2024-02-04T13:43:39;0.80;;;0.80;;
23080;SDS011;72373;50.562;8.498;2024-02-04T13:46:05;2.47;;;0.90;;
23080;SDS011;72373;50.562;8.498;2024-02-04T13:48:30;1.15;;;0.80;;
23080;SDS011;72373;50.562;8.498;2024-02-04T13:50:56;1.35;;;1.05;;
23080;SDS011;72373;50.562;8.498;2024-02-04T13:53:22;1.50;;;1.27;;
23080;SDS011;72373;50.562;8.498;2024-02-04T13:55:48;0.90;;;0.90;;
23080;SDS011;72373;50.562;8.498;2024-02-04T13:58:14;1.00;;;0.80;;
23080;SDS011;72373;50.562;8.498;2024-02-04T14:00:40;0.70;;;0.70;;
23080;SDS011;72373;50.562;8.498;2024-02-04T14:03:05;2.70;;;0.80;;
23080;SDS011;72373;50.562;8.498;2024-02-04T14:05:31;2.97;;;0.90;;
23080;SDS011;72373;50.562;8.498;2024-02-04T14:07:57;1.52;;;1.00;;
23080;SDS011;72373;50.562;8.498;2024-02-04T14:10:23;1.08;;;0.80;;
23080;SDS011;72373;50.562;8.498;2024-02-04T14:12:49;0.93;;;0.80;;
23080;SDS011;72373;50.562;8.498;2024-02-04T14:15:14;1.05;;;0.93;;
23080;SDS011;72373;50.562;8.498;2024-02-04T14:17:40;1.20;;;1.00;;
23080;SDS011;72373;50.562;8.498;2024-02-04T14:20:06;1.65;;;1.20;;
23080;SDS011;72373;50.562;8.498;2024-02-04T14:22:32;0.85;;;0.85;;
23080;SDS011;72373;50.562;8.498;2024-02-04T14:24:57;1.40;;;1.23;;
23080;SDS011;72373;50.562;8.498;2024-02-04T14:27:24;0.80;;;0.80;;
23080;SDS011;72373;50.562;8.498;2024-02-04T14:29:50;1.23;;;0.75;;
23080;SDS011;72373;50.562;8.498;2024-02-04T14:32:16;0.80;;;0.80;;
23080;SDS011;72373;50.562;8.498;2024-02-04T14:34:41;1.15;;;1.00;;
23080;SDS011;72373;50.562;8.498;2024-02-04T14:37:07;1.90;;;1.10;;
23080;SDS011;72373;50.562;8.498;2024-02-04T14:39:33;1.40;;;1.20;;
23080;SDS011;72373;50.562;8.498;2024-02-04T14:41:59;1.42;;;1.00;;
23080;SDS011;72373;50.562;8.498;2024-02-04T14:44:24;1.52;;;1.20;;
23080;SDS011;72373;50.562;8.498;2024-02-04T14:46:50;1.17;;;1.08;;
23080;SDS011;72373;50.562;8.498;2024-02-04T14:49:15;2.85;;;1.20;;
23080;SDS011;72373;50.562;8.498;2024-02-04T14:51:41;1.58;;;1.35;;
23080;SDS011;72373;50.562;8.498;2024-02-04T14:54:07;1.80;;;1.30;;
23080;SDS011;72373;50.562;8.498;2024-02-04T14:56:37;1.77;;;1.40;;
23080;SDS011;72373;50.562;8.498;2024-02-04T14:59:09;1.65;;;1.25;;
23080;SDS011;72373;50.562;8.498;2024-02-04T15:01:36;1.27;;;0.93;;
23080;SDS011;72373;50.562;8.498;2024-02-04T15:04:02;1.52;;;1.00;;